Terminal Aerodrome Forecast
Issued by NWS Springfield, MO

Home | Current Version | Previous Version | Text Only | Print | Product List | Glossary On
Versions: 1 2 3 4 5 6 7 8 9 10 11 12 13 14 15 16 17 18 19 20 21
000
FTUS43 KSGF 180500
TAFSGF
TAF
KSGF 180520Z 1806/1906 16006KT P6SM SCT050 OVC150
      TEMPO 1811/1814 4SM BR
     FM181500 16008KT P6SM VCTS BKN035CB OVC060
     FM190000 12006KT P6SM OVC050 PROB30 1900/1906 4SM -TSRA BR
      OVC035CB=

USA.gov is the U.S. government's official web portal to all federal, state and local government web resources and services.